Time;durP1;ratioP1;P1;durP2;ratioP2;P2;SDS_P1;SDS_P2;PMS_P1;PMS_P2;Temp;Humidity;BMP_temperature;BMP_pressure;BME280_temperature;BME280_humidity;BME280_pressure;Samples;Min_cycle;Max_cycle;Signal;HPM_P1;HPM_P2
2024/04/22 00:01:37;;;;;;;;;;;20.00;57.90;;;;;;5426564;26;19936;-41
2024/04/22 00:04:03;;;;;;;;;;;20.00;57.90;;;;;;5427085;26;19945;-44
2024/04/22 00:06:30;;;;;;;;;;;19.90;57.90;;;;;;5426368;26;20369;-41
2024/04/22 00:08:57;;;;;;;;;;;19.90;58.40;;;;;;5426961;26;19941;-43
2024/04/22 00:11:23;;;;;;;;;;;19.90;57.90;;;;;;5425720;26;19941;-46
2024/04/22 00:13:49;;;;;;;;;;;19.90;57.90;;;;;;5426150;26;19929;-41
2024/04/22 00:16:16;;;;;;;;;;;19.90;57.90;;;;;;5426630;26;19929;-42
2024/04/22 00:18:42;;;;;;;;;;;19.90;57.90;;;;;;5395184;26;19983;-45
2024/04/22 00:21:08;;;;;;;;;;;19.80;57.90;;;;;;5426334;26;19929;-43
2024/04/22 00:23:34;;;;;;;;;;;19.80;57.90;;;;;;5426552;26;19941;-42
2024/04/22 00:26:01;;;;;;;;;;;19.80;57.90;;;;;;5426073;26;20354;-43
2024/04/22 00:28:27;;;;;;;;;;;19.80;57.90;;;;;;5423918;26;19940;-40
2024/04/22 00:30:53;;;;;;;;;;;19.80;57.90;;;;;;5414154;26;20003;-40
2024/04/22 00:33:21;;;;;;;;;;;19.80;57.90;;;;;;5426346;26;19974;-42
2024/04/22 00:35:56;;;;;;;;;;;19.80;58.00;;;;;;5421988;26;19994;-46
2024/04/22 00:38:22;;;;;;;;;;;19.80;58.00;;;;;;5424651;26;19929;-41
2024/04/22 00:40:48;;;;;;;;;;;19.70;57.90;;;;;;5426097;26;19929;-41
2024/04/22 00:43:14;;;;;;;;;;;19.70;58.00;;;;;;5426342;26;19936;-40
2024/04/22 00:45:41;;;;;;;;;;;19.70;58.00;;;;;;5420363;26;19998;-41
2024/04/22 00:48:07;;;;;;;;;;;19.70;58.00;;;;;;5426204;26;19929;-41
2024/04/22 00:50:33;;;;;;;;;;;19.70;58.00;;;;;;5425861;26;20373;-40
2024/04/22 00:52:59;;;;;;;;;;;19.70;58.00;;;;;;5426488;26;19929;-41
2024/04/22 00:55:25;;;;;;;;;;;19.60;58.00;;;;;;5425682;26;19929;-43
2024/04/22 00:57:51;;;;;;;;;;;19.60;58.00;;;;;;5425544;26;19936;-45
2024/04/22 01:00:19;;;;;;;;;;;19.60;58.00;;;;;;5425335;26;19943;-42
2024/04/22 01:02:45;;;;;;;;;;;19.60;58.10;;;;;;5422884;26;19936;-40
2024/04/22 01:05:11;;;;;;;;;;;19.60;58.10;;;;;;5426314;26;19929;-41
2024/04/22 01:07:37;;;;;;;;;;;19.60;58.10;;;;;;5422674;26;19929;-41
2024/04/22 01:10:03;;;;;;;;;;;19.50;58.10;;;;;;5384855;26;19930;-41
2024/04/22 01:12:29;;;;;;;;;;;19.50;58.20;;;;;;5421509;26;20637;-41
2024/04/22 01:14:55;;;;;;;;;;;19.50;58.20;;;;;;5425744;26;19935;-42
2024/04/22 01:17:21;;;;;;;;;;;19.50;58.20;;;;;;5424810;26;19929;-41
2024/04/22 01:19:47;;;;;;;;;;;19.50;58.30;;;;;;5425351;26;19936;-45
2024/04/22 01:22:13;;;;;;;;;;;19.50;58.30;;;;;;5424275;26;19936;-43
2024/04/22 01:24:39;;;;;;;;;;;19.40;58.30;;;;;;5425725;26;19936;-41
2024/04/22 01:27:05;;;;;;;;;;;19.40;58.30;;;;;;5372285;26;19941;-42
2024/04/22 01:29:31;;;;;;;;;;;19.40;58.30;;;;;;5421209;26;19929;-40
2024/04/22 01:31:57;;;;;;;;;;;19.40;58.30;;;;;;5425290;26;19940;-43
2024/04/22 01:34:23;;;;;;;;;;;19.30;58.30;;;;;;5425546;26;19944;-40
2024/04/22 01:36:50;;;;;;;;;;;19.30;58.30;;;;;;5393708;26;19936;-41
2024/04/22 01:39:16;;;;;;;;;;;19.30;58.30;;;;;;5425895;26;19963;-40
2024/04/22 01:41:42;;;;;;;;;;;19.30;58.40;;;;;;5424983;26;19933;-42
2024/04/22 01:44:09;;;;;;;;;;;19.30;58.40;;;;;;5382813;26;20067;-43
2024/04/22 01:46:35;;;;;;;;;;;19.30;58.40;;;;;;5422700;26;19975;-45
2024/04/22 01:49:01;;;;;;;;;;;19.30;58.50;;;;;;5425807;26;19929;-44
2024/04/22 01:51:27;;;;;;;;;;;19.20;58.40;;;;;;5424987;26;19940;-45
2024/04/22 01:53:53;;;;;;;;;;;19.20;58.40;;;;;;5425625;26;20370;-40
2024/04/22 01:56:19;;;;;;;;;;;19.20;58.50;;;;;;5425433;26;19929;-40
2024/04/22 01:58:45;;;;;;;;;;;19.20;58.50;;;;;;5424930;26;19960;-43
2024/04/22 02:01:12;;;;;;;;;;;19.20;58.50;;;;;;5424178;26;20296;-44
2024/04/22 02:03:40;;;;;;;;;;;19.10;58.50;;;;;;5423728;26;19929;-42
2024/04/22 02:06:07;;;;;;;;;;;19.10;58.50;;;;;;5424972;26;19953;-43
2024/04/22 02:08:33;;;;;;;;;;;19.10;58.50;;;;;;5364598;26;19929;-42
2024/04/22 02:10:59;;;;;;;;;;;19.10;58.60;;;;;;5425187;26;20006;-43
2024/04/22 02:13:25;;;;;;;;;;;19.10;58.60;;;;;;5424814;26;19929;-41
2024/04/22 02:15:51;;;;;;;;;;;19.10;58.70;;;;;;5424981;26;19929;-40
2024/04/22 02:18:17;;;;;;;;;;;19.10;58.70;;;;;;5424791;26;19929;-42
2024/04/22 02:20:43;;;;;;;;;;;19.00;58.60;;;;;;5424679;26;20406;-44
2024/04/22 02:23:10;;;;;;;;;;;19.00;58.70;;;;;;5425258;26;19929;-41
2024/04/22 02:25:35;;;;;;;;;;;19.00;58.60;;;;;;5424637;26;20365;-40
2024/04/22 02:28:01;;;;;;;;;;;19.00;58.70;;;;;;5425204;26;19936;-41
2024/04/22 02:30:27;;;;;;;;;;;18.90;58.70;;;;;;5424702;26;20235;-41
2024/04/22 02:32:53;;;;;;;;;;;18.90;58.70;;;;;;5421793;26;19935;-42
2024/04/22 02:35:19;;;;;;;;;;;18.90;58.80;;;;;;5428304;26;19988;-40
2024/04/22 02:37:45;;;;;;;;;;;18.90;58.80;;;;;;5396224;26;20002;-40
2024/04/22 02:40:11;;;;;;;;;;;18.90;58.80;;;;;;5427302;26;20853;-43
2024/04/22 02:42:37;;;;;;;;;;;18.90;58.80;;;;;;5426356;26;19929;-40
2024/04/22 02:45:03;;;;;;;;;;;18.80;58.80;;;;;;5428211;26;20027;-42
2024/04/22 02:47:29;;;;;;;;;;;18.80;58.90;;;;;;5427956;26;20343;-40
2024/04/22 02:49:55;;;;;;;;;;;18.80;58.90;;;;;;5428424;26;20016;-43
2024/04/22 02:52:21;;;;;;;;;;;18.80;58.90;;;;;;5427723;26;19929;-41
2024/04/22 02:54:47;;;;;;;;;;;18.80;58.90;;;;;;5427857;26;19938;-41
2024/04/22 02:57:13;;;;;;;;;;;18.80;58.90;;;;;;5427941;26;20382;-43
2024/04/22 02:59:39;;;;;;;;;;;18.70;58.90;;;;;;5427180;26;19937;-42
2024/04/22 03:02:05;;;;;;;;;;;18.70;58.90;;;;;;5427582;26;19933;-42
2024/04/22 03:04:31;;;;;;;;;;;18.70;58.90;;;;;;5427630;26;19936;-44
2024/04/22 03:06:57;;;;;;;;;;;18.70;58.90;;;;;;5427736;26;19929;-42
2024/04/22 03:09:23;;;;;;;;;;;18.70;59.00;;;;;;5427710;26;19929;-40
2024/04/22 03:11:48;;;;;;;;;;;18.60;59.00;;;;;;5427726;26;19975;-41
2024/04/22 03:14:14;;;;;;;;;;;18.60;59.00;;;;;;5424129;26;19936;-45
2024/04/22 03:16:40;;;;;;;;;;;18.60;59.00;;;;;;5426031;26;19982;-40
2024/04/22 03:19:06;;;;;;;;;;;18.60;59.00;;;;;;5428136;26;19929;-41
2024/04/22 03:21:32;;;;;;;;;;;18.60;59.00;;;;;;5427648;26;19935;-42
2024/04/22 03:23:58;;;;;;;;;;;18.60;59.10;;;;;;5427757;26;19976;-42
2024/04/22 03:26:24;;;;;;;;;;;18.60;59.10;;;;;;5427251;26;19939;-43
2024/04/22 03:28:50;;;;;;;;;;;18.50;59.10;;;;;;5427576;26;19941;-42
2024/04/22 03:31:15;;;;;;;;;;;18.50;59.20;;;;;;5427199;26;19929;-42
2024/04/22 03:33:41;;;;;;;;;;;18.50;59.20;;;;;;5426639;26;19944;-43
2024/04/22 03:36:07;;;;;;;;;;;18.50;59.10;;;;;;5421674;26;19941;-40
2024/04/22 03:38:33;;;;;;;;;;;18.50;59.20;;;;;;5427358;26;19940;-41
2024/04/22 03:40:59;;;;;;;;;;;18.50;59.20;;;;;;5427426;26;20831;-42
2024/04/22 03:43:25;;;;;;;;;;;18.40;59.20;;;;;;5426763;26;19929;-42
2024/04/22 03:51:19;;;;;;;;;;;18.40;59.30;;;;;;5427814;26;19940;-42
2024/04/22 03:53:45;;;;;;;;;;;18.40;59.30;;;;;;5427198;26;19929;-41
2024/04/22 03:56:11;;;;;;;;;;;18.40;59.30;;;;;;5427093;26;19975;-43
2024/04/22 03:58:37;;;;;;;;;;;18.40;59.30;;;;;;5426524;26;19935;-40
2024/04/22 04:01:03;;;;;;;;;;;18.30;59.30;;;;;;5426938;26;20080;-41
2024/04/22 04:03:29;;;;;;;;;;;18.30;59.30;;;;;;5426896;26;19929;-41
2024/04/22 04:05:55;;;;;;;;;;;18.30;59.40;;;;;;5427257;26;19929;-42
2024/04/22 04:08:21;;;;;;;;;;;18.30;59.40;;;;;;5426655;26;19929;-40
2024/04/22 04:10:46;;;;;;;;;;;18.30;59.40;;;;;;5426805;26;19937;-41
2024/04/22 04:13:12;;;;;;;;;;;18.30;59.40;;;;;;5426828;26;20353;-42
2024/04/22 04:15:38;;;;;;;;;;;18.20;59.40;;;;;;5426926;26;19936;-43
2024/04/22 04:18:04;;;;;;;;;;;18.20;59.40;;;;;;5427436;26;19929;-41
2024/04/22 04:20:30;;;;;;;;;;;18.20;59.40;;;;;;5426186;26;20390;-41
2024/04/22 04:22:56;;;;;;;;;;;18.20;59.40;;;;;;5427057;26;19940;-40
2024/04/22 04:25:22;;;;;;;;;;;18.20;59.50;;;;;;5426282;26;19929;-41
2024/04/22 04:27:48;;;;;;;;;;;18.10;59.40;;;;;;5425155;26;19929;-41
2024/04/22 04:30:14;;;;;;;;;;;18.10;59.40;;;;;;5412237;26;19929;-41
2024/04/22 04:32:40;;;;;;;;;;;18.10;59.40;;;;;;5405648;26;20366;-40
2024/04/22 04:35:05;;;;;;;;;;;18.10;59.40;;;;;;5404823;26;19937;-42
2024/04/22 04:37:31;;;;;;;;;;;18.10;59.50;;;;;;5410017;26;19941;-43
2024/04/22 04:39:57;;;;;;;;;;;18.10;59.50;;;;;;5402985;26;20286;-41
2024/04/22 04:42:23;;;;;;;;;;;18.00;59.50;;;;;;5408851;26;19933;-41
2024/04/22 04:44:49;;;;;;;;;;;18.00;59.60;;;;;;5393433;26;19929;-44
2024/04/22 04:47:15;;;;;;;;;;;18.00;59.60;;;;;;5405963;26;20323;-42
2024/04/22 04:49:41;;;;;;;;;;;18.00;60.30;;;;;;5402888;26;19969;-44
2024/04/22 04:52:07;;;;;;;;;;;18.00;59.60;;;;;;5402954;26;19936;-41
2024/04/22 04:54:32;;;;;;;;;;;18.00;59.60;;;;;;5405776;26;19980;-42
2024/04/22 04:56:58;;;;;;;;;;;18.00;59.60;;;;;;5406982;26;20600;-44
2024/04/22 04:59:24;;;;;;;;;;;17.90;59.60;;;;;;5420582;26;19937;-42
2024/04/22 05:01:51;;;;;;;;;;;17.90;59.60;;;;;;5426238;26;19929;-40
2024/04/22 05:04:17;;;;;;;;;;;17.90;59.70;;;;;;5426408;26;19933;-41
2024/04/22 05:06:44;;;;;;;;;;;17.90;59.70;;;;;;5426217;26;19929;-44
2024/04/22 05:09:10;;;;;;;;;;;17.90;59.70;;;;;;5426653;26;19936;-41
2024/04/22 05:11:36;;;;;;;;;;;17.90;60.40;;;;;;5425460;26;19937;-43
2024/04/22 05:14:02;;;;;;;;;;;17.80;59.70;;;;;;5426262;26;20001;-42
2024/04/22 05:16:28;;;;;;;;;;;17.80;59.70;;;;;;5425753;26;19975;-44
2024/04/22 05:18:54;;;;;;;;;;;17.90;59.70;;;;;;5424844;26;19937;-41
2024/04/22 05:21:20;;;;;;;;;;;17.80;59.80;;;;;;5426609;26;19929;-42
2024/04/22 05:23:47;;;;;;;;;;;17.80;59.70;;;;;;5426437;26;19929;-43
2024/04/22 05:26:13;;;;;;;;;;;17.80;59.80;;;;;;5425914;26;19935;-42
2024/04/22 05:28:39;;;;;;;;;;;17.80;59.70;;;;;;5425762;26;19929;-42
2024/04/22 05:31:05;;;;;;;;;;;17.80;59.80;;;;;;5425741;26;19936;-44
2024/04/22 05:36:15;;;;;;;;;;;17.70;59.80;;;;;;5425719;26;19998;-42
2024/04/22 05:38:41;;;;;;;;;;;17.70;59.80;;;;;;5425447;26;19944;-43
2024/04/22 05:41:10;;;;;;;;;;;17.70;60.60;;;;;;5425909;26;19940;-40
2024/04/22 05:43:37;;;;;;;;;;;17.70;59.80;;;;;;5425277;26;19929;-43
2024/04/22 05:46:04;;;;;;;;;;;17.70;59.90;;;;;;5425640;26;19984;-46
2024/04/22 05:48:30;;;;;;;;;;;17.70;59.90;;;;;;5425755;26;19929;-40
2024/04/22 05:50:55;;;;;;;;;;;17.60;59.80;;;;;;5425992;26;19936;-40
2024/04/22 05:53:21;;;;;;;;;;;17.60;59.90;;;;;;5425524;26;19936;-40
2024/04/22 05:55:47;;;;;;;;;;;17.60;59.90;;;;;;5424885;26;19929;-40
2024/04/22 05:58:13;;;;;;;;;;;17.60;60.00;;;;;;5425539;26;20265;-40
2024/04/22 06:00:39;;;;;;;;;;;17.60;60.00;;;;;;5424660;26;19929;-41
2024/04/22 06:03:05;;;;;;;;;;;17.60;60.00;;;;;;5425545;26;19937;-41
2024/04/22 06:05:31;;;;;;;;;;;17.60;60.00;;;;;;5424816;26;19929;-41
2024/04/22 06:07:56;;;;;;;;;;;17.50;60.00;;;;;;5424783;26;19929;-47
2024/04/22 06:10:42;;;;;;;;;;;17.50;60.00;;;;;;5317052;26;19938;-41
2024/04/22 06:13:08;;;;;;;;;;;17.50;60.10;;;;;;5317832;27;19934;-41
2024/04/22 06:15:34;;;;;;;;;;;17.50;60.20;;;;;;5317070;27;19946;-42
2024/04/22 06:18:00;;;;;;;;;;;17.50;60.20;;;;;;5317436;27;20275;-40
2024/04/22 06:20:27;;;;;;;;;;;17.50;60.20;;;;;;5317198;27;19938;-40
2024/04/22 06:22:52;;;;;;;;;;;17.50;60.30;;;;;;5317458;26;19935;-45
2024/04/22 06:25:18;;;;;;;;;;;17.40;60.10;;;;;;5316964;27;20006;-42
2024/04/22 06:27:44;;;;;;;;;;;17.40;60.20;;;;;;5316167;27;19943;-46
2024/04/22 06:30:10;;;;;;;;;;;17.40;60.30;;;;;;5317398;27;19930;-45
2024/04/22 06:32:36;;;;;;;;;;;17.40;60.30;;;;;;5316437;27;19942;-41
2024/04/22 06:35:02;;;;;;;;;;;17.40;60.40;;;;;;5317168;26;20879;-41
2024/04/22 06:37:28;;;;;;;;;;;17.40;60.40;;;;;;5316944;27;19937;-40
2024/04/22 06:39:54;;;;;;;;;;;17.30;60.50;;;;;;5305008;27;19930;-42
2024/04/22 06:42:21;;;;;;;;;;;17.30;60.50;;;;;;5317286;27;19942;-43
2024/04/22 06:44:47;;;;;;;;;;;17.30;60.40;;;;;;5316590;26;19978;-40
2024/04/22 06:47:13;;;;;;;;;;;17.30;60.50;;;;;;5341330;26;19929;-40
2024/04/22 06:49:39;;;;;;;;;;;17.30;60.60;;;;;;5423267;26;19945;-40
2024/04/22 06:52:08;;;;;;;;;;;17.20;60.60;;;;;;5424871;26;19940;-42
2024/04/22 06:54:34;;;;;;;;;;;17.30;60.70;;;;;;5424815;26;19936;-41
2024/04/22 06:57:00;;;;;;;;;;;17.30;60.70;;;;;;5424283;26;19929;-41
2024/04/22 06:59:26;;;;;;;;;;;17.20;60.60;;;;;;5424295;26;19929;-42
2024/04/22 07:01:52;;;;;;;;;;;17.20;60.60;;;;;;5424454;26;19936;-40
2024/04/22 07:04:17;;;;;;;;;;;17.20;60.60;;;;;;5424622;26;19933;-41
2024/04/22 07:06:43;;;;;;;;;;;17.20;60.60;;;;;;5423436;26;19929;-42
2024/04/22 07:09:09;;;;;;;;;;;17.10;60.60;;;;;;5424541;26;19948;-41
2024/04/22 07:11:36;;;;;;;;;;;17.20;60.70;;;;;;5423753;26;19937;-40
2024/04/22 07:14:02;;;;;;;;;;;17.10;60.70;;;;;;5424245;26;19936;-41
2024/04/22 07:16:29;;;;;;;;;;;17.10;60.70;;;;;;5423458;26;19929;-41
2024/04/22 07:18:55;;;;;;;;;;;17.10;60.70;;;;;;5411526;26;20218;-42
2024/04/22 07:21:22;;;;;;;;;;;17.10;60.80;;;;;;5426557;26;19937;-41
2024/04/22 07:23:48;;;;;;;;;;;17.10;60.90;;;;;;5426741;26;19929;-41
2024/04/22 07:26:14;;;;;;;;;;;17.10;60.90;;;;;;5395716;26;20270;-42
2024/04/22 07:28:40;;;;;;;;;;;17.10;61.00;;;;;;5442025;26;20387;-43
2024/04/22 07:31:06;;;;;;;;;;;17.00;61.00;;;;;;5427684;26;19997;-44
2024/04/22 07:33:32;;;;;;;;;;;17.00;61.00;;;;;;5426426;26;20753;-40
2024/04/22 07:36:02;;;;;;;;;;;17.00;61.10;;;;;;5427502;26;19941;-41
2024/04/22 07:38:29;;;;;;;;;;;17.00;61.00;;;;;;5382623;26;19950;-41
2024/04/22 07:40:55;;;;;;;;;;;17.00;61.10;;;;;;5427805;26;19945;-41
2024/04/22 07:43:21;;;;;;;;;;;17.00;61.10;;;;;;5427666;26;19936;-43
2024/04/22 07:45:47;;;;;;;;;;;16.90;61.10;;;;;;5427248;26;19933;-41
2024/04/22 07:48:13;;;;;;;;;;;16.90;61.10;;;;;;5384117;26;19964;-41
2024/04/22 07:50:39;;;;;;;;;;;16.90;61.90;;;;;;5423564;26;19941;-40
2024/04/22 07:53:05;;;;;;;;;;;16.90;61.20;;;;;;5427679;26;19962;-43
2024/04/22 07:55:34;;;;;;;;;;;16.90;61.20;;;;;;5426772;26;19929;-42
2024/04/22 07:58:00;;;;;;;;;;;16.90;61.20;;;;;;5427140;26;20005;-42
2024/04/22 08:00:26;;;;;;;;;;;16.90;61.40;;;;;;5426352;26;19940;-42
2024/04/22 08:02:52;;;;;;;;;;;16.90;61.40;;;;;;5427201;26;19959;-42
2024/04/22 08:05:18;;;;;;;;;;;16.80;61.20;;;;;;5427152;26;19929;-40
2024/04/22 08:07:46;;;;;;;;;;;16.80;61.30;;;;;;5426315;26;20373;-40
2024/04/22 08:10:12;;;;;;;;;;;16.80;61.20;;;;;;5427022;26;19929;-41
2024/04/22 08:12:38;;;;;;;;;;;16.80;61.30;;;;;;5426496;26;19936;-40
2024/04/22 08:15:04;;;;;;;;;;;16.80;61.30;;;;;;5426925;26;19936;-41
2024/04/22 08:17:30;;;;;;;;;;;16.80;61.40;;;;;;5426540;26;19941;-41
2024/04/22 08:19:56;;;;;;;;;;;16.80;61.30;;;;;;5426716;26;19936;-40
2024/04/22 08:22:22;;;;;;;;;;;16.80;61.40;;;;;;5426561;26;20316;-41
2024/04/22 08:24:47;;;;;;;;;;;16.80;61.40;;;;;;5427420;26;19929;-41
2024/04/22 08:27:13;;;;;;;;;;;16.70;61.40;;;;;;5426673;26;19940;-40
2024/04/22 08:29:39;;;;;;;;;;;16.70;61.40;;;;;;5426506;26;19937;-41
2024/04/22 08:32:06;;;;;;;;;;;16.70;61.50;;;;;;5424638;26;19936;-41
2024/04/22 08:34:32;;;;;;;;;;;16.70;61.50;;;;;;5426772;26;19929;-41
2024/04/22 08:36:57;;;;;;;;;;;16.70;61.50;;;;;;5417495;26;19936;-41
2024/04/22 08:39:23;;;;;;;;;;;16.70;61.60;;;;;;5426678;26;19928;-42
2024/04/22 08:41:49;;;;;;;;;;;16.70;61.50;;;;;;5424230;26;19929;-41
2024/04/22 08:44:15;;;;;;;;;;;16.70;61.60;;;;;;5426644;26;20396;-43
2024/04/22 08:46:41;;;;;;;;;;;16.60;61.70;;;;;;5426220;26;19947;-43
2024/04/22 08:49:07;;;;;;;;;;;16.60;61.70;;;;;;5426556;26;19933;-40
2024/04/22 08:51:34;;;;;;;;;;;16.60;61.70;;;;;;5426174;26;19938;-40
2024/04/22 08:54:00;;;;;;;;;;;16.60;61.60;;;;;;5389268;26;20683;-42
2024/04/22 08:56:25;;;;;;;;;;;16.60;61.80;;;;;;5376083;26;19937;-41
2024/04/22 08:58:51;;;;;;;;;;;16.60;61.70;;;;;;5381562;26;19929;-40
2024/04/22 09:01:17;;;;;;;;;;;16.60;61.80;;;;;;5425606;26;20485;-42
2024/04/22 09:03:43;;;;;;;;;;;16.60;61.80;;;;;;5425450;26;19945;-41
2024/04/22 09:06:09;;;;;;;;;;;16.60;61.80;;;;;;5426272;26;19941;-41
2024/04/22 09:08:44;;;;;;;;;;;16.60;61.80;;;;;;5426167;26;19929;-44
2024/04/22 09:11:15;;;;;;;;;;;16.60;61.90;;;;;;5425972;26;19937;-41
2024/04/22 09:13:41;;;;;;;;;;;16.50;61.80;;;;;;5425241;26;19936;-40
2024/04/22 09:16:06;;;;;;;;;;;16.50;61.90;;;;;;5426032;26;19937;-43
2024/04/22 09:18:33;;;;;;;;;;;16.50;61.80;;;;;;5424000;26;19929;-40
2024/04/22 09:21:08;;;;;;;;;;;16.50;62.00;;;;;;5425713;26;19936;-39
2024/04/22 09:23:34;;;;;;;;;;;16.50;61.90;;;;;;5425724;26;19929;-43
2024/04/22 09:26:00;;;;;;;;;;;16.50;62.00;;;;;;5426108;26;19970;-40
2024/04/22 09:28:29;;;;;;;;;;;16.50;61.90;;;;;;5425469;26;19961;-40
2024/04/22 09:30:55;;;;;;;;;;;16.50;61.90;;;;;;5413398;26;19929;-40
2024/04/22 09:33:21;;;;;;;;;;;16.50;62.00;;;;;;5425710;26;19936;-39
2024/04/22 09:35:50;;;;;;;;;;;16.40;61.90;;;;;;5425327;26;19933;-40
2024/04/22 09:38:16;;;;;;;;;;;16.40;62.00;;;;;;5425939;26;19929;-40
2024/04/22 09:40:42;;;;;;;;;;;16.40;62.00;;;;;;5425101;26;21982;-40
2024/04/22 09:43:08;;;;;;;;;;;16.40;61.90;;;;;;5424344;26;19929;-39
2024/04/22 09:45:34;;;;;;;;;;;16.40;61.90;;;;;;5425377;26;19929;-40
2024/04/22 09:48:00;;;;;;;;;;;16.40;62.00;;;;;;5394830;26;20013;-39
2024/04/22 09:50:26;;;;;;;;;;;16.40;61.90;;;;;;5425278;26;19957;-39
2024/04/22 09:52:52;;;;;;;;;;;16.40;62.00;;;;;;5425294;26;19988;-40
2024/04/22 09:55:18;;;;;;;;;;;16.40;61.90;;;;;;5425202;26;19940;-40
2024/04/22 09:57:43;;;;;;;;;;;16.40;62.00;;;;;;5424819;26;19929;-42
2024/04/22 10:00:11;;;;;;;;;;;16.30;62.00;;;;;;5392782;26;19975;-39
2024/04/22 10:02:37;;;;;;;;;;;16.30;62.00;;;;;;5425163;26;19954;-40
2024/04/22 10:05:07;;;;;;;;;;;16.30;62.00;;;;;;5424916;26;20430;-40
2024/04/22 10:07:33;;;;;;;;;;;16.30;62.10;;;;;;5424826;26;19933;-40
2024/04/22 10:09:59;;;;;;;;;;;16.30;62.10;;;;;;5425444;26;19936;-42
2024/04/22 10:12:25;;;;;;;;;;;16.30;62.10;;;;;;5425078;26;19929;-40
2024/04/22 10:15:04;;;;;;;;;;;16.30;62.10;;;;;;5424162;26;19929;-40
2024/04/22 10:17:30;;;;;;;;;;;16.30;62.10;;;;;;5425215;26;19936;-40
2024/04/22 10:19:56;;;;;;;;;;;16.30;62.20;;;;;;5425084;26;19929;-43
2024/04/22 10:22:23;;;;;;;;;;;16.30;62.10;;;;;;5425173;26;20042;-41
2024/04/22 10:24:49;;;;;;;;;;;16.30;62.20;;;;;;5425009;26;19929;-41
2024/04/22 10:27:14;;;;;;;;;;;16.20;62.10;;;;;;5419888;26;19937;-40
2024/04/22 10:29:41;;;;;;;;;;;16.20;62.10;;;;;;5422790;26;19929;-41
2024/04/22 10:32:07;;;;;;;;;;;16.20;62.10;;;;;;5424970;26;19945;-41
2024/04/22 10:34:33;;;;;;;;;;;16.20;62.20;;;;;;5424037;26;19929;-40
2024/04/22 10:36:59;;;;;;;;;;;16.20;62.10;;;;;;5425048;26;19929;-41
2024/04/22 10:39:25;;;;;;;;;;;16.20;62.20;;;;;;5425231;26;19933;-42
2024/04/22 10:41:51;;;;;;;;;;;16.20;62.30;;;;;;5424918;26;19937;-46
2024/04/22 10:44:17;;;;;;;;;;;16.20;62.40;;;;;;5425342;26;19929;-41
2024/04/22 10:46:43;;;;;;;;;;;16.20;62.40;;;;;;5363754;26;19967;-43
2024/04/22 10:49:09;;;;;;;;;;;16.20;62.40;;;;;;5421424;26;19972;-43
2024/04/22 10:51:35;;;;;;;;;;;16.10;62.40;;;;;;5424848;26;19940;-41
2024/04/22 10:54:00;;;;;;;;;;;16.20;62.50;;;;;;5425326;26;19975;-41
2024/04/22 10:56:26;;;;;;;;;;;16.10;62.40;;;;;;5428089;26;19962;-41
2024/04/22 10:58:52;;;;;;;;;;;16.10;62.50;;;;;;5428333;26;19973;-41
2024/04/22 11:01:20;;;;;;;;;;;16.10;62.40;;;;;;5395713;26;20584;-45
2024/04/22 11:03:46;;;;;;;;;;;16.10;62.50;;;;;;5427910;26;19935;-42
2024/04/22 11:06:12;;;;;;;;;;;16.10;62.50;;;;;;5427870;26;19941;-40
2024/04/22 11:08:41;;;;;;;;;;;16.10;62.60;;;;;;5427794;26;20357;-41
2024/04/22 11:11:08;;;;;;;;;;;16.10;62.60;;;;;;5427615;26;19937;-41
2024/04/22 11:13:34;;;;;;;;;;;16.10;62.60;;;;;;5394419;26;19929;-41
2024/04/22 11:16:07;;;;;;;;;;;16.00;62.50;;;;;;5396633;26;20000;-41
2024/04/22 11:18:33;;;;;;;;;;;16.00;62.70;;;;;;5426998;26;19974;-40
2024/04/22 11:20:58;;;;;;;;;;;16.00;62.60;;;;;;5427957;26;19937;-41
2024/04/22 11:23:24;;;;;;;;;;;16.00;62.60;;;;;;5427865;26;19941;-41
2024/04/22 11:25:50;;;;;;;;;;;16.00;62.60;;;;;;5426326;26;19933;-41
2024/04/22 11:28:16;;;;;;;;;;;16.00;62.60;;;;;;5422560;26;20250;-41
2024/04/22 11:30:42;;;;;;;;;;;16.00;62.70;;;;;;5411529;26;19943;-40
2024/04/22 11:33:08;;;;;;;;;;;16.00;62.80;;;;;;5401656;26;19930;-48
2024/04/22 11:35:35;;;;;;;;;;;16.00;62.80;;;;;;5382070;26;19929;-41
2024/04/22 11:38:01;;;;;;;;;;;15.90;62.60;;;;;;5406430;26;19929;-44
2024/04/22 11:40:27;;;;;;;;;;;15.90;62.70;;;;;;5405958;26;19936;-42
2024/04/22 11:42:53;;;;;;;;;;;15.90;62.80;;;;;;5385696;26;19940;-41
2024/04/22 11:45:19;;;;;;;;;;;15.90;62.80;;;;;;5401396;26;19969;-42
2024/04/22 11:47:45;;;;;;;;;;;15.90;62.80;;;;;;5398634;26;19962;-42
2024/04/22 11:50:11;;;;;;;;;;;15.90;62.90;;;;;;5406111;26;19936;-42
2024/04/22 11:52:38;;;;;;;;;;;15.90;62.90;;;;;;5412155;26;19929;-41
2024/04/22 11:55:04;;;;;;;;;;;15.90;62.90;;;;;;5411340;26;20022;-43
2024/04/22 11:57:29;;;;;;;;;;;15.80;62.80;;;;;;5409624;26;19943;-41
2024/04/22 11:59:55;;;;;;;;;;;15.80;62.80;;;;;;5415032;26;19929;-41
2024/04/22 12:02:22;;;;;;;;;;;15.80;63.00;;;;;;5427674;26;19929;-41
2024/04/22 12:04:47;;;;;;;;;;;15.80;62.90;;;;;;5427621;26;19933;-43
2024/04/22 12:07:13;;;;;;;;;;;15.80;62.90;;;;;;5425604;26;19933;-42
2024/04/22 12:09:39;;;;;;;;;;;15.80;63.00;;;;;;5427785;26;19929;-41
2024/04/22 12:12:06;;;;;;;;;;;15.80;63.00;;;;;;5427055;26;19936;-41
2024/04/22 12:14:32;;;;;;;;;;;15.80;63.00;;;;;;5427002;26;20366;-41
2024/04/22 12:16:58;;;;;;;;;;;15.80;63.00;;;;;;5427010;26;19936;-41
2024/04/22 12:19:23;;;;;;;;;;;15.80;63.00;;;;;;5426866;26;19929;-44
2024/04/22 12:21:49;;;;;;;;;;;15.80;63.10;;;;;;5427012;26;19964;-41
2024/04/22 12:24:15;;;;;;;;;;;15.80;63.20;;;;;;5427524;26;19936;-40
2024/04/22 12:26:41;;;;;;;;;;;15.70;63.10;;;;;;5425987;26;19941;-43
2024/04/22 12:29:07;;;;;;;;;;;15.80;63.10;;;;;;5426975;26;19929;-41
2024/04/22 12:31:33;;;;;;;;;;;15.70;63.10;;;;;;5418211;26;19929;-41
2024/04/22 12:33:59;;;;;;;;;;;15.70;63.00;;;;;;5427274;26;19940;-41
2024/04/22 12:36:24;;;;;;;;;;;15.70;63.10;;;;;;5426158;26;20048;-41
2024/04/22 12:38:50;;;;;;;;;;;15.70;63.10;;;;;;5426793;26;20024;-41
2024/04/22 12:41:16;;;;;;;;;;;15.70;63.10;;;;;;5426734;26;19933;-41
2024/04/22 12:43:42;;;;;;;;;;;15.70;63.00;;;;;;5426773;26;20002;-42
2024/04/22 12:46:08;;;;;;;;;;;15.70;63.10;;;;;;5426402;26;20433;-41
2024/04/22 12:51:18;;;;;;;;;;;15.70;63.10;;;;;;5426770;26;19936;-42
2024/04/22 12:53:44;;;;;;;;;;;15.70;63.20;;;;;;5422773;26;19930;-41
2024/04/22 12:56:11;;;;;;;;;;;15.60;63.20;;;;;;5426283;26;20002;-41
2024/04/22 12:58:37;;;;;;;;;;;15.60;63.10;;;;;;5417138;26;19929;-42
2024/04/22 13:01:03;;;;;;;;;;;15.60;63.20;;;;;;5409447;26;19935;-42
2024/04/22 13:03:29;;;;;;;;;;;15.60;63.00;;;;;;5382830;26;20817;-44
2024/04/22 13:05:55;;;;;;;;;;;15.60;63.10;;;;;;5403097;26;19937;-41
2024/04/22 13:08:21;;;;;;;;;;;15.60;63.10;;;;;;5401723;26;19930;-46
2024/04/22 13:10:46;;;;;;;;;;;15.60;63.10;;;;;;5401654;26;19929;-44
2024/04/22 13:13:13;;;;;;;;;;;15.60;63.00;;;;;;5395601;26;19945;-49
2024/04/22 13:15:39;;;;;;;;;;;15.60;63.00;;;;;;5405459;26;20572;-42
2024/04/22 13:18:05;;;;;;;;;;;15.60;62.90;;;;;;5405245;26;19929;-43
2024/04/22 13:20:31;;;;;;;;;;;15.60;62.70;;;;;;5395789;26;19941;-42
2024/04/22 13:22:57;;;;;;;;;;;15.60;62.60;;;;;;5401342;26;19949;-44
2024/04/22 13:25:24;;;;;;;;;;;15.60;62.70;;;;;;5401097;26;20019;-41
2024/04/22 13:27:51;;;;;;;;;;;15.60;62.60;;;;;;5408080;26;19944;-41
2024/04/22 13:30:17;;;;;;;;;;;15.60;62.50;;;;;;5423842;26;19929;-41
2024/04/22 13:32:45;;;;;;;;;;;15.70;62.50;;;;;;5422240;26;20181;-43
2024/04/22 13:35:11;;;;;;;;;;;15.70;62.50;;;;;;5426581;26;19940;-42
2024/04/22 13:37:39;;;;;;;;;;;15.60;62.40;;;;;;5424541;26;19936;-40
2024/04/22 13:40:06;;;;;;;;;;;15.60;62.50;;;;;;5426006;26;19989;-43
2024/04/22 13:42:32;;;;;;;;;;;15.70;62.50;;;;;;5425053;26;19953;-40
2024/04/22 13:44:58;;;;;;;;;;;15.60;62.30;;;;;;5425980;26;19929;-42
2024/04/22 13:47:23;;;;;;;;;;;15.60;62.30;;;;;;5425107;26;19935;-41
2024/04/22 13:49:49;;;;;;;;;;;15.70;62.30;;;;;;5425657;26;19937;-42
2024/04/22 13:52:15;;;;;;;;;;;15.70;62.30;;;;;;5425582;26;20003;-41
2024/04/22 13:54:41;;;;;;;;;;;15.70;62.30;;;;;;5425437;26;19941;-41
2024/04/22 13:57:07;;;;;;;;;;;15.70;62.30;;;;;;5425019;26;19936;-41
2024/04/22 13:59:33;;;;;;;;;;;15.70;62.20;;;;;;5403761;26;19940;-41
2024/04/22 14:01:59;;;;;;;;;;;15.70;62.20;;;;;;5406015;26;19929;-41
2024/04/22 14:04:24;;;;;;;;;;;15.70;62.20;;;;;;5397874;26;20370;-42
2024/04/22 14:06:50;;;;;;;;;;;15.70;62.10;;;;;;5399272;26;20025;-43
2024/04/22 14:09:16;;;;;;;;;;;15.70;62.10;;;;;;5405426;26;19941;-41
2024/04/22 14:11:42;;;;;;;;;;;15.70;62.00;;;;;;5398701;26;22380;-41
2024/04/22 14:14:08;;;;;;;;;;;15.70;61.90;;;;;;5403308;26;19936;-42
2024/04/22 14:16:34;;;;;;;;;;;15.70;62.00;;;;;;5403947;26;19930;-42
2024/04/22 14:19:00;;;;;;;;;;;15.70;62.00;;;;;;5406674;26;20030;-40
2024/04/22 14:21:26;;;;;;;;;;;15.70;61.90;;;;;;5405562;26;19935;-41